sensor_id;sensor_type;location;lat;lon;timestamp;temperature;humidity
66934;DHT22;53846;51.984;5.890;2022-07-06T00:01:35;17.00;61.10
66934;DHT22;53846;51.984;5.890;2022-07-06T00:04:05;17.30;62.80
66934;DHT22;53846;51.984;5.890;2022-07-06T00:06:34;17.10;62.40
66934;DHT22;53846;51.984;5.890;2022-07-06T00:09:04;17.20;61.80
66934;DHT22;53846;51.984;5.890;2022-07-06T00:11:34;17.10;61.60
66934;DHT22;53846;51.984;5.890;2022-07-06T00:14:04;16.80;61.40
66934;DHT22;53846;51.984;5.890;2022-07-06T00:16:36;17.00;62.10
66934;DHT22;53846;51.984;5.890;2022-07-06T00:19:06;16.70;62.10
66934;DHT22;53846;51.984;5.890;2022-07-06T00:21:35;17.00;62.40
66934;DHT22;53846;51.984;5.890;2022-07-06T00:24:05;16.70;62.20
66934;DHT22;53846;51.984;5.890;2022-07-06T00:26:34;16.90;63.40
66934;DHT22;53846;51.984;5.890;2022-07-06T00:29:03;16.90;63.50
66934;DHT22;53846;51.984;5.890;2022-07-06T00:31:35;16.90;63.40
66934;DHT22;53846;51.984;5.890;2022-07-06T00:34:04;16.80;63.60
66934;DHT22;53846;51.984;5.890;2022-07-06T00:36:33;16.90;63.70
66934;DHT22;53846;51.984;5.890;2022-07-06T00:39:03;16.70;63.50
66934;DHT22;53846;51.984;5.890;2022-07-06T00:41:32;16.70;63.60
66934;DHT22;53846;51.984;5.890;2022-07-06T00:44:07;16.70;63.80
66934;DHT22;53846;51.984;5.890;2022-07-06T00:46:39;16.60;64.00
66934;DHT22;53846;51.984;5.890;2022-07-06T00:49:08;16.60;63.60
66934;DHT22;53846;51.984;5.890;2022-07-06T00:51:58;16.50;64.10
66934;DHT22;53846;51.984;5.890;2022-07-06T00:54:30;16.50;64.00
66934;DHT22;53846;51.984;5.890;2022-07-06T00:57:00;16.60;64.00
66934;DHT22;53846;51.984;5.890;2022-07-06T00:59:29;16.80;64.40
66934;DHT22;53846;51.984;5.890;2022-07-06T01:02:02;16.60;64.40
66934;DHT22;53846;51.984;5.890;2022-07-06T01:04:31;16.50;64.30
66934;DHT22;53846;51.984;5.890;2022-07-06T01:07:00;16.60;64.70
66934;DHT22;53846;51.984;5.890;2022-07-06T01:09:30;16.70;64.60
66934;DHT22;53846;51.984;5.890;2022-07-06T01:12:03;16.50;64.10
66934;DHT22;53846;51.984;5.890;2022-07-06T01:14:33;16.60;63.90
66934;DHT22;53846;51.984;5.890;2022-07-06T01:17:05;16.60;63.70
66934;DHT22;53846;51.984;5.890;2022-07-06T01:19:35;16.60;63.60
66934;DHT22;53846;51.984;5.890;2022-07-06T01:22:07;16.40;63.40
66934;DHT22;53846;51.984;5.890;2022-07-06T01:24:38;16.70;63.70
66934;DHT22;53846;51.984;5.890;2022-07-06T01:27:07;16.50;63.80
66934;DHT22;53846;51.984;5.890;2022-07-06T01:29:37;16.40;64.70
66934;DHT22;53846;51.984;5.890;2022-07-06T01:32:06;16.50;64.80
66934;DHT22;53846;51.984;5.890;2022-07-06T01:34:35;16.50;65.60
66934;DHT22;53846;51.984;5.890;2022-07-06T01:37:07;16.60;65.10
66934;DHT22;53846;51.984;5.890;2022-07-06T01:39:36;16.60;64.70
66934;DHT22;53846;51.984;5.890;2022-07-06T01:42:05;16.60;64.40
66934;DHT22;53846;51.984;5.890;2022-07-06T01:44:35;16.50;64.20
66934;DHT22;53846;51.984;5.890;2022-07-06T01:47:04;16.60;64.70
66934;DHT22;53846;51.984;5.890;2022-07-06T01:49:34;16.40;64.90
66934;DHT22;53846;51.984;5.890;2022-07-06T01:52:07;16.50;64.90
66934;DHT22;53846;51.984;5.890;2022-07-06T01:54:36;16.40;64.80
66934;DHT22;53846;51.984;5.890;2022-07-06T01:57:08;16.50;64.80
66934;DHT22;53846;51.984;5.890;2022-07-06T01:59:38;16.40;64.90
66934;DHT22;53846;51.984;5.890;2022-07-06T02:02:07;16.40;64.90
66934;DHT22;53846;51.984;5.890;2022-07-06T02:04:37;16.40;64.90
66934;DHT22;53846;51.984;5.890;2022-07-06T02:07:09;16.30;64.90
66934;DHT22;53846;51.984;5.890;2022-07-06T02:09:38;16.30;65.10
66934;DHT22;53846;51.984;5.890;2022-07-06T02:12:08;16.30;65.30
66934;DHT22;53846;51.984;5.890;2022-07-06T02:14:37;16.30;67.80
66934;DHT22;53846;51.984;5.890;2022-07-06T02:17:06;16.20;67.20
66934;DHT22;53846;51.984;5.890;2022-07-06T02:19:35;16.00;66.70
66934;DHT22;53846;51.984;5.890;2022-07-06T02:22:04;16.20;67.40
66934;DHT22;53846;51.984;5.890;2022-07-06T02:24:36;16.10;66.90
66934;DHT22;53846;51.984;5.890;2022-07-06T02:27:05;16.10;66.80
66934;DHT22;53846;51.984;5.890;2022-07-06T02:29:34;16.20;67.40
66934;DHT22;53846;51.984;5.890;2022-07-06T02:32:03;16.10;67.10
66934;DHT22;53846;51.984;5.890;2022-07-06T02:34:33;16.00;67.60
66934;DHT22;53846;51.984;5.890;2022-07-06T02:37:02;16.20;68.30
66934;DHT22;53846;51.984;5.890;2022-07-06T02:39:35;16.00;67.90
66934;DHT22;53846;51.984;5.890;2022-07-06T02:42:05;16.00;67.60
66934;DHT22;53846;51.984;5.890;2022-07-06T02:44:34;16.20;67.70
66934;DHT22;53846;51.984;5.890;2022-07-06T02:47:06;16.00;67.70
66934;DHT22;53846;51.984;5.890;2022-07-06T02:49:35;15.90;67.20
66934;DHT22;53846;51.984;5.890;2022-07-06T02:52:05;15.80;67.30
66934;DHT22;53846;51.984;5.890;2022-07-06T02:54:37;16.00;67.20
66934;DHT22;53846;51.984;5.890;2022-07-06T02:57:06;16.00;67.30
66934;DHT22;53846;51.984;5.890;2022-07-06T02:59:35;16.00;67.30
66934;DHT22;53846;51.984;5.890;2022-07-06T03:02:04;16.30;67.30
66934;DHT22;53846;51.984;5.890;2022-07-06T03:04:34;15.90;67.00
66934;DHT22;53846;51.984;5.890;2022-07-06T03:07:03;16.00;67.20
66934;DHT22;53846;51.984;5.890;2022-07-06T03:09:35;15.90;67.40
66934;DHT22;53846;51.984;5.890;2022-07-06T03:12:05;15.90;67.90
66934;DHT22;53846;51.984;5.890;2022-07-06T03:14:35;15.90;67.70
66934;DHT22;53846;51.984;5.890;2022-07-06T03:17:05;15.80;67.90
66934;DHT22;53846;51.984;5.890;2022-07-06T03:19:34;15.90;67.70
66934;DHT22;53846;51.984;5.890;2022-07-06T03:22:03;15.80;68.30
66934;DHT22;53846;51.984;5.890;2022-07-06T03:24:32;15.80;68.30
66934;DHT22;53846;51.984;5.890;2022-07-06T03:27:04;16.00;68.30
66934;DHT22;53846;51.984;5.890;2022-07-06T03:29:33;16.00;68.30
66934;DHT22;53846;51.984;5.890;2022-07-06T03:32:04;15.90;68.10
66934;DHT22;53846;51.984;5.890;2022-07-06T03:34:34;15.90;68.40
66934;DHT22;53846;51.984;5.890;2022-07-06T03:37:06;15.90;68.60
66934;DHT22;53846;51.984;5.890;2022-07-06T03:39:38;15.80;68.70
66934;DHT22;53846;51.984;5.890;2022-07-06T03:42:10;16.00;68.50
66934;DHT22;53846;51.984;5.890;2022-07-06T03:44:40;16.00;68.50
66934;DHT22;53846;51.984;5.890;2022-07-06T03:47:10;16.00;68.70
66934;DHT22;53846;51.984;5.890;2022-07-06T03:49:39;16.30;68.70
66934;DHT22;53846;51.984;5.890;2022-07-06T03:52:09;16.20;68.90
66934;DHT22;53846;51.984;5.890;2022-07-06T03:54:45;16.10;68.70
66934;DHT22;53846;51.984;5.890;2022-07-06T03:57:22;16.10;68.70
66934;DHT22;53846;51.984;5.890;2022-07-06T03:59:52;16.20;68.60
66934;DHT22;53846;51.984;5.890;2022-07-06T04:02:23;16.20;68.60
66934;DHT22;53846;51.984;5.890;2022-07-06T04:04:52;16.20;68.30
66934;DHT22;53846;51.984;5.890;2022-07-06T04:07:22;16.20;68.30
66934;DHT22;53846;51.984;5.890;2022-07-06T04:09:51;16.30;68.30
66934;DHT22;53846;51.984;5.890;2022-07-06T04:12:23;16.20;68.30
66934;DHT22;53846;51.984;5.890;2022-07-06T04:14:52;16.30;68.30
66934;DHT22;53846;51.984;5.890;2022-07-06T04:17:24;16.30;68.20
66934;DHT22;53846;51.984;5.890;2022-07-06T04:20:07;16.50;68.30
66934;DHT22;53846;51.984;5.890;2022-07-06T04:22:37;16.30;68.10
66934;DHT22;53846;51.984;5.890;2022-07-06T04:25:07;16.30;67.90
66934;DHT22;53846;51.984;5.890;2022-07-06T04:27:40;16.20;67.80
66934;DHT22;53846;51.984;5.890;2022-07-06T04:30:10;16.60;68.40
66934;DHT22;53846;51.984;5.890;2022-07-06T04:32:41;16.50;68.20
66934;DHT22;53846;51.984;5.890;2022-07-06T04:35:11;16.40;68.20
66934;DHT22;53846;51.984;5.890;2022-07-06T04:37:42;16.80;68.20
66934;DHT22;53846;51.984;5.890;2022-07-06T04:40:13;16.60;67.90
66934;DHT22;53846;51.984;5.890;2022-07-06T04:42:44;16.60;67.80
66934;DHT22;53846;51.984;5.890;2022-07-06T04:45:14;16.60;67.90
66934;DHT22;53846;51.984;5.890;2022-07-06T04:47:43;16.80;68.40
66934;DHT22;53846;51.984;5.890;2022-07-06T04:50:13;16.50;67.90
66934;DHT22;53846;51.984;5.890;2022-07-06T04:52:43;16.70;67.80
66934;DHT22;53846;51.984;5.890;2022-07-06T04:55:13;16.70;68.00
66934;DHT22;53846;51.984;5.890;2022-07-06T04:57:45;16.50;70.30
66934;DHT22;53846;51.984;5.890;2022-07-06T05:00:17;16.50;69.90
66934;DHT22;53846;51.984;5.890;2022-07-06T05:02:48;16.40;69.30
66934;DHT22;53846;51.984;5.890;2022-07-06T05:05:25;16.40;69.80
66934;DHT22;53846;51.984;5.890;2022-07-06T05:07:57;16.10;70.10
66934;DHT22;53846;51.984;5.890;2022-07-06T05:10:26;16.30;70.60
66934;DHT22;53846;51.984;5.890;2022-07-06T05:13:00;16.30;72.40
66934;DHT22;53846;51.984;5.890;2022-07-06T05:15:29;16.30;73.00
66934;DHT22;53846;51.984;5.890;2022-07-06T05:17:58;16.20;73.20
66934;DHT22;53846;51.984;5.890;2022-07-06T05:20:27;16.30;73.60
66934;DHT22;53846;51.984;5.890;2022-07-06T05:22:57;16.30;74.20
66934;DHT22;53846;51.984;5.890;2022-07-06T05:25:29;16.20;73.20
66934;DHT22;53846;51.984;5.890;2022-07-06T05:28:01;16.10;73.30
66934;DHT22;53846;51.984;5.890;2022-07-06T05:30:31;16.60;73.60
66934;DHT22;53846;51.984;5.890;2022-07-06T05:33:00;16.70;72.80
66934;DHT22;53846;51.984;5.890;2022-07-06T05:35:30;16.40;72.20
66934;DHT22;53846;51.984;5.890;2022-07-06T05:38:01;16.50;71.80
66934;DHT22;53846;51.984;5.890;2022-07-06T05:40:30;16.70;71.90
66934;DHT22;53846;51.984;5.890;2022-07-06T05:43:03;16.60;71.50
66934;DHT22;53846;51.984;5.890;2022-07-06T05:45:32;16.80;71.50
66934;DHT22;53846;51.984;5.890;2022-07-06T05:48:02;16.60;70.60
66934;DHT22;53846;51.984;5.890;2022-07-06T05:50:44;16.80;71.40
66934;DHT22;53846;51.984;5.890;2022-07-06T05:53:13;17.10;71.30
66934;DHT22;53846;51.984;5.890;2022-07-06T05:55:43;17.00;71.30
66934;DHT22;53846;51.984;5.890;2022-07-06T05:58:15;17.00;71.50
66934;DHT22;53846;51.984;5.890;2022-07-06T06:00:46;16.80;70.80
66934;DHT22;53846;51.984;5.890;2022-07-06T06:03:18;17.20;69.90
66934;DHT22;53846;51.984;5.890;2022-07-06T06:05:49;17.30;69.50
66934;DHT22;53846;51.984;5.890;2022-07-06T06:08:20;17.40;69.00
66934;DHT22;53846;51.984;5.890;2022-07-06T06:10:51;17.50;68.50
66934;DHT22;53846;51.984;5.890;2022-07-06T06:13:25;17.40;68.60
66934;DHT22;53846;51.984;5.890;2022-07-06T06:15:54;17.50;68.30
66934;DHT22;53846;51.984;5.890;2022-07-06T06:18:23;17.70;67.40
66934;DHT22;53846;51.984;5.890;2022-07-06T06:20:53;17.60;67.60
66934;DHT22;53846;51.984;5.890;2022-07-06T06:23:22;17.60;67.50
66934;DHT22;53846;51.984;5.890;2022-07-06T06:25:51;17.90;67.70
66934;DHT22;53846;51.984;5.890;2022-07-06T06:28:20;17.80;67.10
66934;DHT22;53846;51.984;5.890;2022-07-06T06:30:52;17.80;67.70
66934;DHT22;53846;51.984;5.890;2022-07-06T06:33:21;17.80;67.60
66934;DHT22;53846;51.984;5.890;2022-07-06T06:35:51;17.90;67.70
66934;DHT22;53846;51.984;5.890;2022-07-06T06:38:22;17.90;67.60
66934;DHT22;53846;51.984;5.890;2022-07-06T06:40:52;17.70;66.20
66934;DHT22;53846;51.984;5.890;2022-07-06T06:43:21;18.20;66.80
66934;DHT22;53846;51.984;5.890;2022-07-06T06:45:59;18.30;67.30
66934;DHT22;53846;51.984;5.890;2022-07-06T06:48:31;18.20;66.60
66934;DHT22;53846;51.984;5.890;2022-07-06T06:51:00;18.30;65.50
66934;DHT22;53846;51.984;5.890;2022-07-06T06:53:29;18.30;66.90
66934;DHT22;53846;51.984;5.890;2022-07-06T06:55:58;18.30;66.20
66934;DHT22;53846;51.984;5.890;2022-07-06T06:58:27;18.40;65.00
66934;DHT22;53846;51.984;5.890;2022-07-06T07:00:59;18.50;63.60
66934;DHT22;53846;51.984;5.890;2022-07-06T07:03:28;18.60;63.40
66934;DHT22;53846;51.984;5.890;2022-07-06T07:05:57;18.60;63.50
66934;DHT22;53846;51.984;5.890;2022-07-06T07:08:26;18.60;63.40
66934;DHT22;53846;51.984;5.890;2022-07-06T07:10:55;18.90;63.40
66934;DHT22;53846;51.984;5.890;2022-07-06T07:13:24;18.80;63.30
66934;DHT22;53846;51.984;5.890;2022-07-06T07:15:54;18.90;63.20
66934;DHT22;53846;51.984;5.890;2022-07-06T07:18:26;19.00;63.00
66934;DHT22;53846;51.984;5.890;2022-07-06T07:20:55;19.00;61.90
66934;DHT22;53846;51.984;5.890;2022-07-06T07:23:24;19.00;62.40
66934;DHT22;53846;51.984;5.890;2022-07-06T07:25:53;19.30;62.70
66934;DHT22;53846;51.984;5.890;2022-07-06T07:28:22;18.90;62.40
66934;DHT22;53846;51.984;5.890;2022-07-06T07:30:51;19.10;62.70
66934;DHT22;53846;51.984;5.890;2022-07-06T07:33:20;19.30;61.90
66934;DHT22;53846;51.984;5.890;2022-07-06T07:35:52;19.60;61.00
66934;DHT22;53846;51.984;5.890;2022-07-06T07:38:21;19.60;61.00
66934;DHT22;53846;51.984;5.890;2022-07-06T07:40:50;19.50;61.00
66934;DHT22;53846;51.984;5.890;2022-07-06T07:43:19;19.50;60.90
66934;DHT22;53846;51.984;5.890;2022-07-06T07:45:48;19.60;60.60
66934;DHT22;53846;51.984;5.890;2022-07-06T07:48:18;19.50;60.60
66934;DHT22;53846;51.984;5.890;2022-07-06T07:50:47;19.70;61.90
66934;DHT22;53846;51.984;5.890;2022-07-06T07:53:18;19.80;59.80
66934;DHT22;53846;51.984;5.890;2022-07-06T07:55:48;19.60;58.50
66934;DHT22;53846;51.984;5.890;2022-07-06T07:58:17;20.20;58.80
66934;DHT22;53846;51.984;5.890;2022-07-06T08:00:46;20.10;57.80
66934;DHT22;53846;51.984;5.890;2022-07-06T08:03:15;20.00;56.90
66934;DHT22;53846;51.984;5.890;2022-07-06T08:05:44;20.10;57.40
66934;DHT22;53846;51.984;5.890;2022-07-06T08:08:14;20.10;57.20
66934;DHT22;53846;51.984;5.890;2022-07-06T08:10:46;20.20;55.30
66934;DHT22;53846;51.984;5.890;2022-07-06T08:13:15;20.20;54.90
66934;DHT22;53846;51.984;5.890;2022-07-06T08:15:44;20.30;54.40
66934;DHT22;53846;51.984;5.890;2022-07-06T08:18:13;20.20;52.50
66934;DHT22;53846;51.984;5.890;2022-07-06T08:20:42;20.40;51.20
66934;DHT22;53846;51.984;5.890;2022-07-06T08:23:11;20.40;51.60
66934;DHT22;53846;51.984;5.890;2022-07-06T08:25:40;20.60;51.10
66934;DHT22;53846;51.984;5.890;2022-07-06T08:28:12;20.50;52.30
66934;DHT22;53846;51.984;5.890;2022-07-06T08:30:41;20.80;52.00
66934;DHT22;53846;51.984;5.890;2022-07-06T08:33:10;20.60;51.10
66934;DHT22;53846;51.984;5.890;2022-07-06T08:35:39;20.60;51.80
66934;DHT22;53846;51.984;5.890;2022-07-06T08:38:08;20.70;51.00
66934;DHT22;53846;51.984;5.890;2022-07-06T08:40:38;20.80;50.60
66934;DHT22;53846;51.984;5.890;2022-07-06T08:43:11;20.80;50.00
66934;DHT22;53846;51.984;5.890;2022-07-06T08:45:41;20.80;50.80
66934;DHT22;53846;51.984;5.890;2022-07-06T08:48:11;20.70;51.50
66934;DHT22;53846;51.984;5.890;2022-07-06T08:50:40;20.70;50.60
66934;DHT22;53846;51.984;5.890;2022-07-06T08:53:09;20.90;51.80
66934;DHT22;53846;51.984;5.890;2022-07-06T08:55:38;21.00;51.60
66934;DHT22;53846;51.984;5.890;2022-07-06T08:58:07;21.00;51.30
66934;DHT22;53846;51.984;5.890;2022-07-06T09:00:41;20.80;51.30
66934;DHT22;53846;51.984;5.890;2022-07-06T09:03:14;21.00;50.40
66934;DHT22;53846;51.984;5.890;2022-07-06T09:05:45;20.80;50.20
66934;DHT22;53846;51.984;5.890;2022-07-06T09:08:14;21.00;50.60
66934;DHT22;53846;51.984;5.890;2022-07-06T09:10:44;21.10;50.10
66934;DHT22;53846;51.984;5.890;2022-07-06T09:13:13;21.10;49.10
66934;DHT22;53846;51.984;5.890;2022-07-06T09:15:47;21.10;50.40
66934;DHT22;53846;51.984;5.890;2022-07-06T09:18:16;21.30;49.60
66934;DHT22;53846;51.984;5.890;2022-07-06T09:20:45;21.40;50.80
66934;DHT22;53846;51.984;5.890;2022-07-06T09:23:16;21.50;48.50
66934;DHT22;53846;51.984;5.890;2022-07-06T09:25:48;21.40;47.40
66934;DHT22;53846;51.984;5.890;2022-07-06T09:28:17;21.60;48.70
66934;DHT22;53846;51.984;5.890;2022-07-06T09:30:54;21.30;47.60
66934;DHT22;53846;51.984;5.890;2022-07-06T09:33:23;21.40;49.30
66934;DHT22;53846;51.984;5.890;2022-07-06T09:35:55;21.00;49.10
66934;DHT22;53846;51.984;5.890;2022-07-06T09:38:27;21.20;49.10
66934;DHT22;53846;51.984;5.890;2022-07-06T09:40:57;21.30;49.20
66934;DHT22;53846;51.984;5.890;2022-07-06T09:43:29;21.20;48.10
66934;DHT22;53846;51.984;5.890;2022-07-06T09:46:02;21.20;48.30
66934;DHT22;53846;51.984;5.890;2022-07-06T09:48:34;21.30;47.30
66934;DHT22;53846;51.984;5.890;2022-07-06T09:51:04;21.40;49.50
66934;DHT22;53846;51.984;5.890;2022-07-06T09:53:35;21.40;48.80
66934;DHT22;53846;51.984;5.890;2022-07-06T09:56:04;21.60;47.60
66934;DHT22;53846;51.984;5.890;2022-07-06T09:58:38;21.70;47.80
66934;DHT22;53846;51.984;5.890;2022-07-06T10:01:10;21.60;47.40
66934;DHT22;53846;51.984;5.890;2022-07-06T10:03:39;22.00;45.70
66934;DHT22;53846;51.984;5.890;2022-07-06T10:06:09;22.10;46.20
66934;DHT22;53846;51.984;5.890;2022-07-06T10:08:39;22.10;46.20
66934;DHT22;53846;51.984;5.890;2022-07-06T10:11:11;22.20;47.20
66934;DHT22;53846;51.984;5.890;2022-07-06T10:13:41;22.30;43.30
66934;DHT22;53846;51.984;5.890;2022-07-06T10:16:14;22.00;44.30
66934;DHT22;53846;51.984;5.890;2022-07-06T10:18:44;22.10;44.30
66934;DHT22;53846;51.984;5.890;2022-07-06T10:21:18;21.90;45.30
66934;DHT22;53846;51.984;5.890;2022-07-06T10:23:48;22.50;44.90
66934;DHT22;53846;51.984;5.890;2022-07-06T10:26:17;22.50;46.50
66934;DHT22;53846;51.984;5.890;2022-07-06T10:28:48;22.60;46.10
66934;DHT22;53846;51.984;5.890;2022-07-06T10:31:20;22.30;45.20
66934;DHT22;53846;51.984;5.890;2022-07-06T10:33:50;22.60;47.40
66934;DHT22;53846;51.984;5.890;2022-07-06T10:36:20;22.30;47.60
66934;DHT22;53846;51.984;5.890;2022-07-06T10:38:50;22.40;46.70
66934;DHT22;53846;51.984;5.890;2022-07-06T10:41:30;22.40;46.80
66934;DHT22;53846;51.984;5.890;2022-07-06T10:43:57;22.40;46.50
66934;DHT22;53846;51.984;5.890;2022-07-06T10:46:34;22.80;44.80
66934;DHT22;53846;51.984;5.890;2022-07-06T10:49:15;22.70;46.50
66934;DHT22;53846;51.984;5.890;2022-07-06T10:51:44;22.80;43.50
66934;DHT22;53846;51.984;5.890;2022-07-06T10:54:15;22.70;45.30
66934;DHT22;53846;51.984;5.890;2022-07-06T10:56:46;22.70;45.20
66934;DHT22;53846;51.984;5.890;2022-07-06T10:59:18;22.70;45.00
66934;DHT22;53846;51.984;5.890;2022-07-06T11:02:14;22.70;44.00
66934;DHT22;53846;51.984;5.890;2022-07-06T11:04:45;22.70;43.30
66934;DHT22;53846;51.984;5.890;2022-07-06T11:07:15;23.00;44.60
66934;DHT22;53846;51.984;5.890;2022-07-06T11:09:54;22.70;43.30
66934;DHT22;53846;51.984;5.890;2022-07-06T11:12:23;23.20;43.50
66934;DHT22;53846;51.984;5.890;2022-07-06T11:14:53;22.90;44.10
66934;DHT22;53846;51.984;5.890;2022-07-06T11:17:25;22.90;44.10
66934;DHT22;53846;51.984;5.890;2022-07-06T11:19:58;23.20;45.00
66934;DHT22;53846;51.984;5.890;2022-07-06T11:22:30;23.30;44.70
66934;DHT22;53846;51.984;5.890;2022-07-06T11:24:59;23.50;44.80
66934;DHT22;53846;51.984;5.890;2022-07-06T11:27:29;23.30;43.70
66934;DHT22;53846;51.984;5.890;2022-07-06T11:29:58;23.50;43.60
66934;DHT22;53846;51.984;5.890;2022-07-06T11:32:30;23.50;44.50
66934;DHT22;53846;51.984;5.890;2022-07-06T11:34:59;23.40;44.80
66934;DHT22;53846;51.984;5.890;2022-07-06T11:37:28;23.30;43.60
66934;DHT22;53846;51.984;5.890;2022-07-06T11:39:57;23.30;43.70
66934;DHT22;53846;51.984;5.890;2022-07-06T11:42:34;23.50;44.00
66934;DHT22;53846;51.984;5.890;2022-07-06T11:45:06;23.60;42.80
66934;DHT22;53846;51.984;5.890;2022-07-06T11:47:38;23.70;42.60
66934;DHT22;53846;51.984;5.890;2022-07-06T11:50:08;23.60;45.50
66934;DHT22;53846;51.984;5.890;2022-07-06T11:52:37;23.30;43.50
66934;DHT22;53846;51.984;5.890;2022-07-06T11:55:07;23.30;43.70
66934;DHT22;53846;51.984;5.890;2022-07-06T11:57:36;23.20;44.90
66934;DHT22;53846;51.984;5.890;2022-07-06T12:00:09;23.10;44.60
66934;DHT22;53846;51.984;5.890;2022-07-06T12:02:41;22.90;44.40
66934;DHT22;53846;51.984;5.890;2022-07-06T12:05:30;23.10;45.20
66934;DHT22;53846;51.984;5.890;2022-07-06T12:08:07;23.20;45.10
66934;DHT22;53846;51.984;5.890;2022-07-06T12:10:36;23.00;44.70
66934;DHT22;53846;51.984;5.890;2022-07-06T12:13:05;22.90;44.60
66934;DHT22;53846;51.984;5.890;2022-07-06T12:15:34;22.90;45.60
66934;DHT22;53846;51.984;5.890;2022-07-06T12:18:06;23.00;46.00
66934;DHT22;53846;51.984;5.890;2022-07-06T12:20:35;23.10;45.90
66934;DHT22;53846;51.984;5.890;2022-07-06T12:23:06;23.20;46.20
66934;DHT22;53846;51.984;5.890;2022-07-06T12:25:36;22.90;46.80
66934;DHT22;53846;51.984;5.890;2022-07-06T12:28:05;23.00;47.30
66934;DHT22;53846;51.984;5.890;2022-07-06T12:30:45;23.00;46.70
66934;DHT22;53846;51.984;5.890;2022-07-06T12:33:17;23.10;46.20
66934;DHT22;53846;51.984;5.890;2022-07-06T12:35:46;23.10;45.60
66934;DHT22;53846;51.984;5.890;2022-07-06T12:38:21;23.40;44.40
66934;DHT22;53846;51.984;5.890;2022-07-06T12:40:51;23.50;45.10
66934;DHT22;53846;51.984;5.890;2022-07-06T12:43:36;23.80;44.40
66934;DHT22;53846;51.984;5.890;2022-07-06T12:46:23;23.80;43.80
66934;DHT22;53846;51.984;5.890;2022-07-06T12:48:59;24.20;44.60
66934;DHT22;53846;51.984;5.890;2022-07-06T12:51:28;24.20;42.90
66934;DHT22;53846;51.984;5.890;2022-07-06T12:54:13;24.20;44.20
66934;DHT22;53846;51.984;5.890;2022-07-06T12:56:58;24.10;45.10
66934;DHT22;53846;51.984;5.890;2022-07-06T12:59:28;24.00;43.20
66934;DHT22;53846;51.984;5.890;2022-07-06T13:01:58;23.90;43.70
66934;DHT22;53846;51.984;5.890;2022-07-06T13:04:30;23.70;44.60
66934;DHT22;53846;51.984;5.890;2022-07-06T13:07:01;23.70;43.90
66934;DHT22;53846;51.984;5.890;2022-07-06T13:09:30;23.50;43.70
66934;DHT22;53846;51.984;5.890;2022-07-06T13:11:59;24.00;44.10
66934;DHT22;53846;51.984;5.890;2022-07-06T13:14:28;23.80;44.10
66934;DHT22;53846;51.984;5.890;2022-07-06T13:16:57;23.40;44.80
66934;DHT22;53846;51.984;5.890;2022-07-06T13:19:29;23.60;45.40
66934;DHT22;53846;51.984;5.890;2022-07-06T13:21:58;23.40;45.30
66934;DHT22;53846;51.984;5.890;2022-07-06T13:24:27;23.50;44.50
66934;DHT22;53846;51.984;5.890;2022-07-06T13:26:56;23.10;46.50
66934;DHT22;53846;51.984;5.890;2022-07-06T13:29:25;23.40;47.70
66934;DHT22;53846;51.984;5.890;2022-07-06T13:31:55;23.50;45.50
66934;DHT22;53846;51.984;5.890;2022-07-06T13:34:24;23.20;45.40
66934;DHT22;53846;51.984;5.890;2022-07-06T13:36:55;23.30;44.50
66934;DHT22;53846;51.984;5.890;2022-07-06T13:39:24;23.50;44.70
66934;DHT22;53846;51.984;5.890;2022-07-06T13:41:54;23.40;45.30
66934;DHT22;53846;51.984;5.890;2022-07-06T13:44:23;23.30;47.30
66934;DHT22;53846;51.984;5.890;2022-07-06T13:46:52;23.20;48.30
66934;DHT22;53846;51.984;5.890;2022-07-06T13:49:22;23.10;47.30
66934;DHT22;53846;51.984;5.890;2022-07-06T13:51:51;23.20;47.50
66934;DHT22;53846;51.984;5.890;2022-07-06T13:54:23;22.90;47.00
66934;DHT22;53846;51.984;5.890;2022-07-06T13:56:52;23.00;46.70
66934;DHT22;53846;51.984;5.890;2022-07-06T13:59:21;22.80;47.40
66934;DHT22;53846;51.984;5.890;2022-07-06T14:01:50;23.10;46.20
66934;DHT22;53846;51.984;5.890;2022-07-06T14:04:20;23.10;46.60
66934;DHT22;53846;51.984;5.890;2022-07-06T14:06:49;23.20;46.30
66934;DHT22;53846;51.984;5.890;2022-07-06T14:09:18;23.10;46.80
66934;DHT22;53846;51.984;5.890;2022-07-06T14:11:49;23.10;47.20
66934;DHT22;53846;51.984;5.890;2022-07-06T14:14:18;23.00;46.30
66934;DHT22;53846;51.984;5.890;2022-07-06T14:16:48;23.00;45.40
66934;DHT22;53846;51.984;5.890;2022-07-06T14:19:17;23.10;45.00
66934;DHT22;53846;51.984;5.890;2022-07-06T14:21:47;22.90;46.70
66934;DHT22;53846;51.984;5.890;2022-07-06T14:24:16;23.00;45.10
66934;DHT22;53846;51.984;5.890;2022-07-06T14:26:45;23.20;46.50
66934;DHT22;53846;51.984;5.890;2022-07-06T14:29:17;23.10;46.10
66934;DHT22;53846;51.984;5.890;2022-07-06T14:31:46;23.40;46.30
66934;DHT22;53846;51.984;5.890;2022-07-06T14:34:15;23.30;45.40
66934;DHT22;53846;51.984;5.890;2022-07-06T14:36:44;23.50;46.90
66934;DHT22;53846;51.984;5.890;2022-07-06T14:39:13;23.50;46.20
66934;DHT22;53846;51.984;5.890;2022-07-06T14:41:42;23.40;46.50
66934;DHT22;53846;51.984;5.890;2022-07-06T14:44:11;23.40;44.90
66934;DHT22;53846;51.984;5.890;2022-07-06T14:46:43;23.30;44.30
66934;DHT22;53846;51.984;5.890;2022-07-06T14:49:12;23.10;46.20
66934;DHT22;53846;51.984;5.890;2022-07-06T14:51:41;23.40;44.70
66934;DHT22;53846;51.984;5.890;2022-07-06T14:54:10;23.50;43.90
66934;DHT22;53846;51.984;5.890;2022-07-06T14:56:39;23.70;44.20
66934;DHT22;53846;51.984;5.890;2022-07-06T14:59:09;23.40;44.80
66934;DHT22;53846;51.984;5.890;2022-07-06T15:01:38;23.40;46.80
66934;DHT22;53846;51.984;5.890;2022-07-06T15:04:10;23.30;46.00
66934;DHT22;53846;51.984;5.890;2022-07-06T15:06:39;23.30;45.40
66934;DHT22;53846;51.984;5.890;2022-07-06T15:09:08;23.10;46.90
66934;DHT22;53846;51.984;5.890;2022-07-06T15:11:37;23.00;48.00
66934;DHT22;53846;51.984;5.890;2022-07-06T15:14:06;23.10;46.40
66934;DHT22;53846;51.984;5.890;2022-07-06T15:16:36;23.00;47.80
66934;DHT22;53846;51.984;5.890;2022-07-06T15:19:05;22.90;45.50
66934;DHT22;53846;51.984;5.890;2022-07-06T15:21:36;22.90;47.60
66934;DHT22;53846;51.984;5.890;2022-07-06T15:24:06;23.00;46.90
66934;DHT22;53846;51.984;5.890;2022-07-06T15:26:35;23.00;48.30
66934;DHT22;53846;51.984;5.890;2022-07-06T15:29:04;22.90;47.70
66934;DHT22;53846;51.984;5.890;2022-07-06T15:31:33;23.10;47.60
66934;DHT22;53846;51.984;5.890;2022-07-06T15:34:03;23.20;46.40
66934;DHT22;53846;51.984;5.890;2022-07-06T15:36:32;23.20;47.30
66934;DHT22;53846;51.984;5.890;2022-07-06T15:39:04;23.00;47.60
66934;DHT22;53846;51.984;5.890;2022-07-06T15:41:33;23.30;46.90
66934;DHT22;53846;51.984;5.890;2022-07-06T15:44:03;23.50;47.30
66934;DHT22;53846;51.984;5.890;2022-07-06T15:46:32;23.20;48.00
66934;DHT22;53846;51.984;5.890;2022-07-06T15:49:02;23.20;47.20
66934;DHT22;53846;51.984;5.890;2022-07-06T15:51:32;23.20;47.60